Nonthaburi, Thailand
Current Conditions -  °F | °C
As of 5:00 PM on Tuesday 27 Jan 2015 (Local Time) from VTBD Reporting Station
Broken Clouds Broken Clouds  
Wind Chill: 32°   Ceiling: 30000
Heat Index: 33°   Visibility: 5mi
Dew Point: 18°   Wind: 5mph
Humidity: 43%   Direction: 310°NW
Pressure: 29.8"   Gusts: NA
Location:  13.84°N, 100.52°E
Report Text: VTBD 271000Z 31004KT 8000 FEW040 BKN300 32/18 Q1009 NOSIG
Loading
Personal Weather Stations






























Interactive Weather Map New forecast layout! Learn more

10-Day Weather Forecast

Advertisements
Track Severe Weather on mobile